Time;durP1;ratioP1;P1;durP2;ratioP2;P2;SDS_P1;SDS_P2;PMS_P1;PMS_P2;Temp;Humidity;BMP_temperature;BMP_pressure;BME280_temperature;BME280_humidity;BME280_pressure;Samples;Min_cycle;Max_cycle;Signal;HPM_P1;HPM_P2
2023/02/19 00:01:15;;;;;;;130.88;61.90;;;;;;;7.28;100.00;101641.00;5040132;28;20387;-72
2023/02/19 00:03:46;;;;;;;123.95;63.13;;;;;;;7.27;100.00;101647.97;5039485;28;20033;-72
2023/02/19 00:06:11;;;;;;;115.05;57.88;;;;;;;7.29;100.00;101642.69;5038156;28;20480;-72
2023/02/19 00:08:38;;;;;;;134.10;61.88;;;;;;;7.27;100.00;101642.78;5046364;28;20037;-72
2023/02/19 00:11:10;;;;;;;129.57;60.85;;;;;;;7.25;100.00;101636.84;5044410;28;20028;-72
2023/02/19 00:13:41;;;;;;;118.60;58.13;;;;;;;7.26;100.00;101635.09;5044476;28;20574;-72
2023/02/19 00:16:17;;;;;;;123.80;56.90;;;;;;;7.29;100.00;101627.13;5045438;28;20148;-71
2023/02/19 00:18:44;;;;;;;116.28;56.88;;;;;;;7.29;100.00;101635.72;5041145;28;20037;-72
2023/02/19 00:21:10;;;;;;;106.00;49.83;;;;;;;7.30;100.00;101634.81;5037801;28;20342;-71
2023/02/19 00:23:36;;;;;;;119.85;56.45;;;;;;;7.29;100.00;101634.91;5045708;28;20040;-72
2023/02/19 00:26:03;;;;;;;124.07;59.10;;;;;;;7.29;100.00;101632.31;5046741;28;20029;-71
2023/02/19 00:28:28;;;;;;;111.95;57.10;;;;;;;7.28;100.00;101635.84;5041951;28;20033;-71
2023/02/19 00:30:54;;;;;;;120.35;59.88;;;;;;;7.28;100.00;101638.44;5046428;28;20354;-72
2023/02/19 00:33:19;;;;;;;114.45;56.58;;;;;;;7.29;100.00;101640.09;5045564;28;20032;-71
2023/02/19 00:35:44;;;;;;;111.72;53.88;;;;;;;7.29;100.00;101645.28;5039504;28;20042;-72
2023/02/19 00:38:10;;;;;;;122.50;59.17;;;;;;;7.28;100.00;101639.25;5044671;28;20116;-72
2023/02/19 00:40:37;;;;;;;116.25;57.67;;;;;;;7.30;100.00;101637.41;5047001;28;20029;-72
2023/02/19 00:43:02;;;;;;;122.72;60.03;;;;;;;7.31;100.00;101628.69;5044559;28;20032;-72
2023/02/19 00:45:28;;;;;;;111.25;54.20;;;;;;;7.30;100.00;101628.78;5043368;28;20388;-72
2023/02/19 00:47:53;;;;;;;122.20;58.22;;;;;;;7.30;100.00;101628.78;5041296;28;20036;-72
2023/02/19 00:50:18;;;;;;;119.32;58.97;;;;;;;7.29;100.00;101620.19;5047609;28;20120;-72
2023/02/19 00:52:44;;;;;;;112.10;54.13;;;;;;;7.30;100.00;101615.81;5040316;28;20097;-72
2023/02/19 00:55:09;;;;;;;114.13;58.40;;;;;;;7.29;100.00;101619.34;5045153;28;20032;-71
2023/02/19 00:57:35;;;;;;;125.93;59.60;;;;;;;7.30;100.00;101616.66;5045355;28;20087;-72
2023/02/19 01:00:00;;;;;;;114.78;56.15;;;;;;;7.31;100.00;101620.91;5045423;28;20025;-72
2023/02/19 01:02:25;;;;;;;110.10;54.65;;;;;;;7.29;100.00;101607.22;5049773;28;20033;-72
2023/02/19 01:04:51;;;;;;;114.25;57.38;;;;;;;7.29;100.00;101608.97;5047600;28;20036;-71
2023/02/19 01:07:17;;;;;;;104.80;52.60;;;;;;;7.27;100.00;101603.06;5049481;28;20051;-72
2023/02/19 01:09:43;;;;;;;116.15;58.83;;;;;;;7.26;100.00;101603.97;5045023;28;20036;-72
2023/02/19 01:12:08;;;;;;;114.90;56.00;;;;;;;7.25;100.00;101597.13;5048352;28;20426;-72
2023/02/19 01:14:35;;;;;;;112.57;56.10;;;;;;;7.24;100.00;101595.47;5045404;28;20047;-72
2023/02/19 01:17:00;;;;;;;106.90;54.22;;;;;;;7.25;100.00;101594.53;5047807;28;20053;-72
2023/02/19 01:19:25;;;;;;;114.78;55.72;;;;;;;7.27;100.00;101595.28;5048733;28;20136;-72
2023/02/19 01:21:51;;;;;;;117.18;58.30;;;;;;;7.29;100.00;101589.06;5046994;28;20056;-72
2023/02/19 01:24:16;;;;;;;123.90;57.25;;;;;;;7.28;100.00;101587.41;5049645;28;20040;-71
2023/02/19 01:26:42;;;;;;;111.15;54.30;;;;;;;7.28;100.00;101589.16;5044582;28;20028;-72
2023/02/19 01:29:07;;;;;;;111.07;54.72;;;;;;;7.27;100.00;101585.75;5045287;28;20078;-72
2023/02/19 01:31:33;;;;;;;113.53;55.67;;;;;;;7.25;100.00;101585.00;5048833;28;20119;-71
2023/02/19 01:34:00;;;;;;;113.20;58.60;;;;;;;7.24;100.00;101579.91;5049048;28;22220;-71
2023/02/19 01:36:26;;;;;;;111.53;54.95;;;;;;;7.21;100.00;101575.75;5049193;28;20134;-72
2023/02/19 01:38:52;;;;;;;109.45;53.83;;;;;;;7.19;100.00;101572.44;5046532;28;20224;-72
2023/02/19 01:41:21;;;;;;;112.95;53.72;;;;;;;7.21;100.00;101567.16;5049519;28;20029;-71
2023/02/19 01:44:02;;;;;;;105.82;54.90;;;;;;;7.21;100.00;101565.38;5045363;28;20428;-72
2023/02/19 01:46:30;;;;;;;99.47;51.53;;;;;;;7.25;100.00;101560.84;5048178;28;20604;-72
2023/02/19 01:48:58;;;;;;;107.95;53.42;;;;;;;7.24;100.00;101557.41;5048084;28;20028;-72
2023/02/19 01:51:23;;;;;;;110.75;54.15;;;;;;;7.24;100.00;101551.41;5049237;28;20086;-71
2023/02/19 01:53:57;;;;;;;103.05;53.08;;;;;;;7.21;100.00;101551.59;5057695;28;20128;-72
2023/02/19 01:56:25;;;;;;;93.75;48.83;;;;;;;7.24;100.00;101551.41;5045981;28;20061;-72
2023/02/19 01:58:51;;;;;;;94.63;49.05;;;;;;;7.27;100.00;101548.63;5047485;28;20037;-72
2023/02/19 02:01:17;;;;;;;102.88;52.47;;;;;;;7.31;100.00;101542.31;5060862;28;20033;-72
2023/02/19 02:03:48;;;;;;;106.85;52.92;;;;;;;7.32;100.00;101536.19;5046618;28;20037;-72
2023/02/19 02:06:29;;;;;;;97.00;49.92;;;;;;;7.30;100.00;101546.66;5045596;28;20094;-72
2023/02/19 02:11:48;;;;;;;94.00;47.88;;;;;;;7.31;100.00;101537.97;5045759;28;20059;-72
2023/02/19 02:14:16;;;;;;;101.15;50.67;;;;;;;7.32;100.00;101549.16;5043887;28;20024;-72
2023/02/19 02:17:07;;;;;;;99.75;49.60;;;;;;;7.29;100.00;101541.56;5044634;28;20044;-72
2023/02/19 02:19:57;;;;;;;99.57;52.20;;;;;;;7.27;100.00;101541.69;5047539;28;20032;-72
2023/02/19 02:22:47;;;;;;;103.45;51.38;;;;;;;7.27;100.00;101548.63;5048958;28;20032;-72
2023/02/19 02:25:30;;;;;;;103.82;51.13;;;;;;;7.25;100.00;101534.91;5045851;28;20476;-72
2023/02/19 02:28:04;;;;;;;96.78;50.50;;;;;;;7.23;100.00;101536.78;5040395;28;20456;-72
2023/02/19 02:30:41;;;;;;;100.20;51.08;;;;;;;7.22;100.00;101535.94;5043396;28;20043;-72
2023/02/19 02:33:20;;;;;;;97.00;49.65;;;;;;;7.22;100.00;101532.53;5047916;28;20026;-72
2023/02/19 02:36:10;;;;;;;88.75;48.72;;;;;;;7.23;100.00;101527.25;5041230;28;20126;-71
2023/02/19 02:38:39;;;;;;;95.40;49.13;;;;;;;7.26;100.00;101526.22;5046963;28;20381;-72
2023/02/19 02:41:05;;;;;;;91.05;45.78;;;;;;;7.28;100.00;101519.19;5045065;28;20361;-72
2023/02/19 02:43:31;;;;;;;84.18;45.50;;;;;;;7.29;100.00;101513.06;5049970;28;20040;-72
2023/02/19 02:45:57;;;;;;;83.80;43.63;;;;;;;7.33;100.00;101515.38;5047807;28;20029;-72
2023/02/19 02:48:40;;;;;;;78.78;41.60;;;;;;;7.37;100.00;101513.41;5050629;28;20097;-72
2023/02/19 02:51:12;;;;;;;78.90;42.72;;;;;;;7.40;100.00;101513.22;5042382;28;20236;-72
2023/02/19 02:56:28;;;;;;;89.30;46.08;;;;;;;7.36;100.00;101501.38;5045972;28;20088;-72
2023/02/19 02:58:55;;;;;;;82.32;44.90;;;;;;;7.31;100.00;101491.28;5044845;28;20067;-72
2023/02/19 03:04:33;;;;;;;82.95;43.53;;;;;;;7.33;100.00;101480.81;5048182;28;20530;-72
2023/02/19 03:07:07;;;;;;;80.85;43.90;;;;;;;7.35;100.00;101480.72;5044961;28;20462;-72
2023/02/19 03:09:40;;;;;;;80.40;44.42;;;;;;;7.37;100.00;101482.28;5049035;28;20039;-71
2023/02/19 03:20:50;;;;;;;82.22;45.67;;;;;;;7.36;100.00;101470.25;5045869;28;20094;-72
2023/02/19 03:23:17;;;;;;;78.90;43.15;;;;;;;7.35;100.00;101460.00;5044681;28;20049;-72
2023/02/19 03:31:19;;;;;;;81.35;43.15;;;;;;;7.34;100.00;101451.38;5044243;28;20118;-72
2023/02/19 03:33:52;;;;;;;84.40;44.88;;;;;;;7.33;100.00;101453.16;5041841;28;20025;-72
2023/02/19 03:36:24;;;;;;;87.22;45.45;;;;;;;7.31;100.00;101451.56;5046640;28;20484;-72
2023/02/19 03:38:59;;;;;;;85.68;46.08;;;;;;;7.31;100.00;101452.41;5043352;28;20033;-72
2023/02/19 03:41:24;;;;;;;79.72;42.92;;;;;;;7.33;100.00;101457.50;5038202;28;20542;-72
2023/02/19 03:44:01;;;;;;;80.97;46.65;;;;;;;7.35;100.00;101452.22;5041803;28;20040;-72
2023/02/19 03:46:53;;;;;;;83.38;44.45;;;;;;;7.34;100.00;101451.38;5042706;28;20492;-72
2023/02/19 03:49:52;;;;;;;84.78;44.88;;;;;;;7.34;100.00;101456.56;5038241;28;20064;-72
2023/02/19 03:52:34;;;;;;;84.45;45.40;;;;;;;7.33;100.00;101447.97;5038815;28;20432;-72
2023/02/19 03:55:05;;;;;;;81.70;43.53;;;;;;;7.35;100.00;101447.03;5042025;28;20040;-72
2023/02/19 03:57:52;;;;;;;85.20;45.10;;;;;;;7.36;100.00;101441.75;5040585;28;20033;-72
2023/02/19 04:00:21;;;;;;;81.88;42.78;;;;;;;7.36;100.00;101438.31;5042019;28;20111;-72
2023/02/19 04:02:58;;;;;;;77.35;43.15;;;;;;;7.39;100.00;101441.53;5041840;28;20059;-72
2023/02/19 04:05:28;;;;;;;75.43;41.40;;;;;;;7.42;100.00;101438.75;5042520;28;20033;-72
2023/02/19 04:07:58;;;;;;;73.25;40.95;;;;;;;7.42;100.00;101433.56;5040607;28;20029;-72
2023/02/19 04:10:25;;;;;;;78.03;41.97;;;;;;;7.43;100.00;101435.22;5044749;28;20051;-72
2023/02/19 04:12:57;;;;;;;77.65;43.83;;;;;;;7.41;100.00;101441.44;5039027;28;20038;-72
2023/02/19 04:15:28;;;;;;;82.60;45.28;;;;;;;7.39;100.00;101444.13;5053606;28;20457;-72
2023/02/19 04:17:58;;;;;;;82.18;44.92;;;;;;;7.37;100.00;101440.81;5041938;28;20064;-72
2023/02/19 04:20:28;;;;;;;87.38;46.60;;;;;;;7.36;100.00;101433.13;5040559;28;20086;-72
2023/02/19 04:22:54;;;;;;;83.72;46.35;;;;;;;7.25;100.00;101439.84;5039359;28;20037;-72
2023/02/19 04:25:23;;;;;;;92.63;47.22;;;;;;;7.18;100.00;101450.69;5041139;28;20087;-72
2023/02/19 04:27:51;;;;;;;94.57;48.42;;;;;;;7.11;100.00;101439.06;5043335;28;20079;-72
2023/02/19 04:30:17;;;;;;;92.60;47.65;;;;;;;7.09;100.00;101435.78;5044736;28;20132;-72
2023/02/19 04:32:42;;;;;;;87.88;46.50;;;;;;;7.11;100.00;101432.13;5038438;28;20052;-72
2023/02/19 04:35:08;;;;;;;89.90;48.63;;;;;;;7.11;100.00;101429.53;5043389;28;20150;-72
2023/02/19 04:37:33;;;;;;;96.22;47.85;;;;;;;7.12;100.00;101430.38;5045360;28;20425;-72
2023/02/19 04:39:59;;;;;;;93.75;48.55;;;;;;;7.09;100.00;101428.78;5045820;28;20087;-72
2023/02/19 04:42:24;;;;;;;93.45;47.45;;;;;;;7.15;100.00;101430.16;5040996;28;20218;-72
2023/02/19 04:44:50;;;;;;;91.32;47.58;;;;;;;7.15;100.00;101418.03;5040123;28;20084;-72
2023/02/19 04:47:18;;;;;;;89.32;47.53;;;;;;;7.18;100.00;101419.59;5046796;28;20032;-72
2023/02/19 04:49:44;;;;;;;91.72;46.67;;;;;;;7.18;100.00;101422.19;5044103;28;20033;-71
2023/02/19 04:52:10;;;;;;;91.15;48.67;;;;;;;7.20;100.00;101420.34;5043084;28;20063;-72
2023/02/19 04:54:37;;;;;;;93.88;47.25;;;;;;;7.19;100.00;101411.72;5042138;28;20041;-72
2023/02/19 04:57:03;;;;;;;88.55;49.70;;;;;;;7.21;100.00;101411.63;5046272;28;20155;-72
2023/02/19 04:59:29;;;;;;;85.68;47.20;;;;;;;7.23;100.00;101414.94;5049344;28;20033;-71
2023/02/19 05:01:56;;;;;;;94.07;48.50;;;;;;;7.25;100.00;101415.69;5043997;28;20060;-72
2023/02/19 05:04:22;;;;;;;87.35;48.05;;;;;;;7.25;100.00;101411.34;5045074;28;20025;-72
2023/02/19 05:06:49;;;;;;;81.88;44.85;;;;;;;7.26;100.00;101412.16;5041444;28;20060;-72
2023/02/19 05:09:14;;;;;;;95.60;49.10;;;;;;;7.24;100.00;101404.47;5047905;28;20124;-72
2023/02/19 05:11:40;;;;;;;89.93;47.97;;;;;;;7.27;100.00;101401.69;5044937;28;20095;-72
2023/02/19 05:14:06;;;;;;;90.78;48.45;;;;;;;7.28;100.00;101405.13;5041956;28;20033;-72
2023/02/19 05:16:32;;;;;;;91.78;50.22;;;;;;;7.30;100.00;101403.25;5046462;28;20024;-72
2023/02/19 05:18:58;;;;;;;95.60;49.33;;;;;;;7.31;100.00;101399.72;5039738;28;20032;-72
2023/02/19 05:21:24;;;;;;;89.60;47.85;;;;;;;7.31;100.00;101400.56;5040900;28;20044;-72
2023/02/19 05:23:49;;;;;;;88.05;47.67;;;;;;;7.31;100.00;101404.91;5043272;28;20025;-72
2023/02/19 05:26:19;;;;;;;93.57;48.72;;;;;;;7.32;100.00;101406.59;5043831;28;20110;-72
2023/02/19 05:28:46;;;;;;;89.07;46.08;;;;;;;7.30;100.00;101403.25;5042674;28;20025;-72
2023/02/19 05:31:14;;;;;;;92.88;47.72;;;;;;;7.29;100.00;101402.44;5036477;28;20040;-72
2023/02/19 05:33:41;;;;;;;91.38;50.10;;;;;;;7.30;100.00;101400.66;5040678;28;20083;-72
2023/02/19 05:36:12;;;;;;;86.93;47.85;;;;;;;7.30;100.00;101398.06;5040974;28;20417;-72
2023/02/19 05:38:39;;;;;;;90.78;46.95;;;;;;;7.30;100.00;101392.88;5045797;28;20033;-72
2023/02/19 05:41:15;;;;;;;88.38;48.13;;;;;;;7.28;100.00;101386.97;5055405;28;20052;-71
2023/02/19 05:43:43;;;;;;;88.28;50.03;;;;;;;7.26;100.00;101384.47;5044415;28;20061;-72
2023/02/19 05:46:11;;;;;;;89.22;48.83;;;;;;;7.26;100.00;101378.47;5045332;28;20461;-72
2023/02/19 05:48:37;;;;;;;87.38;49.22;;;;;;;7.28;100.00;101379.19;5042138;28;20037;-72
2023/02/19 05:51:06;;;;;;;83.05;45.58;;;;;;;7.30;100.00;101379.94;5042082;28;20060;-72
2023/02/19 05:53:33;;;;;;;86.30;47.20;;;;;;;7.31;100.00;101363.44;5039397;28;20025;-72
2023/02/19 05:55:58;;;;;;;82.55;44.65;;;;;;;7.30;100.00;101362.63;5044523;28;20037;-71
2023/02/19 05:58:25;;;;;;;86.00;45.47;;;;;;;7.31;100.00;101363.44;5046401;28;20459;-72
2023/02/19 06:00:50;;;;;;;78.28;43.55;;;;;;;7.28;100.00;101369.66;5047107;28;20134;-72
2023/02/19 06:03:16;;;;;;;77.85;42.03;;;;;;;7.27;100.00;101367.16;5045182;28;20468;-72
2023/02/19 06:05:41;;;;;;;82.45;44.83;;;;;;;7.27;100.00;101372.34;5045244;28;20025;-72
2023/02/19 06:08:06;;;;;;;76.68;43.88;;;;;;;7.29;100.00;101375.66;5046162;28;20032;-72
2023/02/19 06:10:32;;;;;;;75.38;42.60;;;;;;;7.31;100.00;101377.22;5047055;28;20036;-72
2023/02/19 06:12:57;;;;;;;74.65;42.05;;;;;;;7.31;100.00;101377.22;5042475;28;20144;-71
2023/02/19 06:15:23;;;;;;;76.68;43.17;;;;;;;7.32;100.00;101373.72;5045818;28;20052;-72
2023/02/19 06:17:48;;;;;;;77.43;43.00;;;;;;;7.31;100.00;101374.66;5046196;28;20068;-72
2023/02/19 06:20:14;;;;;;;74.63;43.10;;;;;;;7.31;100.00;101371.22;5046824;28;20083;-71
2023/02/19 06:22:39;;;;;;;66.38;38.60;;;;;;;7.33;100.00;101383.16;5044342;28;20039;-71
2023/02/19 06:25:06;;;;;;;75.55;42.33;;;;;;;7.33;100.00;101374.53;5040810;28;20037;-71
2023/02/19 06:27:32;;;;;;;71.63;41.15;;;;;;;7.34;100.00;101381.38;5044811;28;20483;-72
2023/02/19 06:29:58;;;;;;;72.68;40.55;;;;;;;7.36;100.00;101384.72;5042963;28;20090;-72
2023/02/19 06:32:24;;;;;;;73.53;41.53;;;;;;;7.36;100.00;101378.69;5044800;28;20084;-72
2023/02/19 06:34:49;;;;;;;70.90;40.58;;;;;;;7.38;100.00;101389.78;5039001;28;20052;-72
2023/02/19 06:37:15;;;;;;;75.35;42.28;;;;;;;7.37;100.00;101383.78;5038440;28;20033;-72
2023/02/19 06:39:40;;;;;;;80.88;44.40;;;;;;;7.38;100.00;101387.19;5041436;28;20362;-72
2023/02/19 06:42:06;;;;;;;87.70;49.58;;;;;;;7.32;100.00;101389.25;5044008;28;20140;-72
2023/02/19 06:44:31;;;;;;;79.38;45.72;;;;;;;7.32;100.00;101397.03;5037188;28;20064;-72
2023/02/19 06:46:56;;;;;;;80.25;46.70;;;;;;;7.31;100.00;101394.56;5040491;28;20036;-71
2023/02/19 06:49:22;;;;;;;73.13;44.15;;;;;;;7.31;100.00;101381.59;5042480;28;20037;-72
2023/02/19 06:51:47;;;;;;;74.82;41.70;;;;;;;7.33;100.00;101372.78;5043335;28;20112;-72
2023/02/19 06:54:13;;;;;;;72.30;42.88;;;;;;;7.38;100.00;101380.25;5042244;28;20119;-72
2023/02/19 06:56:40;;;;;;;63.60;38.90;;;;;;;7.37;100.00;101383.78;5041059;28;20043;-72
2023/02/19 06:59:15;;;;;;;59.25;36.95;;;;;;;7.35;100.00;101382.22;5041111;28;20052;-72
2023/02/19 07:01:42;;;;;;;57.55;35.33;;;;;;;7.37;100.00;101373.41;5038313;28;20032;-72
2023/02/19 07:04:07;;;;;;;61.38;35.33;;;;;;;7.41;100.00;101389.59;5041413;28;20949;-72
2023/02/19 07:06:34;;;;;;;55.45;33.90;;;;;;;7.44;100.00;101399.75;5043748;28;20017;-72
2023/02/19 07:09:00;;;;;;;59.65;35.72;;;;;;;7.41;100.00;101403.38;5043431;28;20514;-72
2023/02/19 07:11:29;;;;;;;59.28;35.92;;;;;;;7.44;100.00;101410.97;5043839;28;20054;-72
2023/02/19 07:13:56;;;;;;;54.95;33.30;;;;;;;7.47;100.00;101415.94;5040775;28;20052;-72
2023/02/19 07:16:22;;;;;;;57.13;36.15;;;;;;;7.49;100.00;101419.28;5042894;28;20037;-72
2023/02/19 07:18:47;;;;;;;59.42;35.25;;;;;;;7.47;100.00;101415.94;5042622;28;20041;-72
2023/02/19 07:21:13;;;;;;;56.78;34.78;;;;;;;7.46;100.00;101422.06;5039322;28;20029;-72
2023/02/19 07:23:40;;;;;;;55.55;32.95;;;;;;;7.46;100.00;101416.06;5042350;28;20687;-72
2023/02/19 07:26:12;;;;;;;60.38;33.80;;;;;;;7.45;100.00;101412.63;5037200;28;20089;-72
2023/02/19 07:28:47;;;;;;;51.60;33.15;;;;;;;7.48;100.00;101427.97;5040859;28;20127;-71
2023/02/19 07:31:14;;;;;;;66.85;32.70;;;;;;;7.50;100.00;101435.66;5038300;28;20102;-72
2023/02/19 07:33:43;;;;;;;56.25;32.58;;;;;;;7.49;100.00;101427.06;5040664;28;20041;-72
2023/02/19 07:36:11;;;;;;;60.08;33.60;;;;;;;7.50;100.00;101427.88;5039725;28;20515;-72
2023/02/19 07:38:36;;;;;;;54.65;34.10;;;;;;;7.51;100.00;101427.78;5034979;28;20041;-72
2023/02/19 07:41:04;;;;;;;59.60;34.97;;;;;;;7.51;100.00;101422.59;5034245;28;20036;-72
2023/02/19 07:43:32;;;;;;;68.05;37.50;;;;;;;7.54;100.00;101417.22;5036557;28;20575;-72
2023/02/19 07:45:58;;;;;;;74.05;42.80;;;;;;;7.56;100.00;101420.50;5042990;28;20103;-72
2023/02/19 07:48:23;;;;;;;77.38;44.67;;;;;;;7.58;100.00;101436.78;5036275;28;20056;-72
2023/02/19 07:50:56;;;;;;;82.60;48.08;;;;;;;7.58;100.00;101436.78;5037742;28;20043;-71
2023/02/19 07:53:23;;;;;;;86.68;47.80;;;;;;;7.62;100.00;101429.63;5039789;28;20033;-72
2023/02/19 07:55:48;;;;;;;95.15;51.63;;;;;;;7.62;100.00;101422.69;5039016;28;20048;-72
2023/02/19 07:58:14;;;;;;;80.80;44.70;;;;;;;7.63;100.00;101429.53;5041387;28;20509;-72
2023/02/19 08:00:40;;;;;;;91.65;50.08;;;;;;;7.70;100.00;101431.72;5040784;28;20107;-71
2023/02/19 08:03:06;;;;;;;80.38;47.13;;;;;;;7.73;100.00;101426.34;5044444;28;20069;-71
2023/02/19 08:05:33;;;;;;;84.22;48.33;;;;;;;7.78;100.00;101434.66;5042597;28;20184;-71
2023/02/19 08:07:59;;;;;;;85.90;49.20;;;;;;;7.82;100.00;101430.91;5040929;28;20040;-71
2023/02/19 08:13:18;;;;;;;80.07;41.75;;;;;;;7.84;100.00;101429.88;5046500;28;20048;-71
2023/02/19 08:15:46;;;;;;;72.43;42.22;;;;;;;7.84;100.00;101427.28;5058942;28;20040;-70
2023/02/19 08:18:13;;;;;;;64.90;40.97;;;;;;;7.84;100.00;101421.25;5044478;28;20029;-70
2023/02/19 08:20:39;;;;;;;68.97;43.83;;;;;;;7.83;100.00;101423.03;5042836;28;20036;-70
2023/02/19 08:23:05;;;;;;;79.35;46.42;;;;;;;7.88;100.00;101433.94;5042288;28;20489;-70
2023/02/19 08:25:31;;;;;;;87.88;48.95;;;;;;;7.91;100.00;101430.28;5060534;28;20033;-70
2023/02/19 08:27:59;;;;;;;78.50;46.20;;;;;;;7.93;100.00;101420.63;5038458;28;20131;-70
2023/02/19 08:30:25;;;;;;;78.25;48.85;;;;;;;7.93;100.00;101429.25;5036215;28;20625;-70
2023/02/19 08:32:50;;;;;;;82.78;47.58;;;;;;;7.98;100.00;101422.00;5036410;28;20079;-71
2023/02/19 08:35:18;;;;;;;85.10;50.10;;;;;;;8.04;100.00;101422.47;5040097;28;20045;-70
2023/02/19 08:37:45;;;;;;;87.43;48.58;;;;;;;8.05;100.00;101424.97;5040385;28;20033;-70
2023/02/19 08:40:11;;;;;;;93.88;51.20;;;;;;;8.06;100.00;101429.22;5041770;28;20040;-71
2023/02/19 08:42:37;;;;;;;87.07;51.03;;;;;;;8.06;100.00;101420.63;5041759;28;20044;-69
2023/02/19 08:45:04;;;;;;;74.25;43.50;;;;;;;8.01;100.00;101422.72;5045046;28;20036;-69
2023/02/19 08:47:29;;;;;;;69.75;41.75;;;;;;;7.95;100.00;101427.38;5042140;28;20076;-69
2023/02/19 08:49:55;;;;;;;63.60;37.60;;;;;;;7.93;100.00;101433.63;5047022;28;20064;-69
2023/02/19 08:52:20;;;;;;;63.28;37.03;;;;;;;7.94;100.00;101432.69;5041517;28;20032;-69
2023/02/19 08:54:45;;;;;;;61.17;35.83;;;;;;;7.94;100.00;101435.28;5042533;28;20076;-70
2023/02/19 08:57:11;;;;;;;57.33;36.40;;;;;;;7.94;100.00;101435.28;5042631;28;20041;-70
2023/02/19 08:59:36;;;;;;;56.53;34.95;;;;;;;7.94;100.00;101430.09;5043420;28;20033;-69
2023/02/19 09:02:02;;;;;;;56.40;35.33;;;;;;;7.95;100.00;101421.38;5040956;28;20040;-69
2023/02/19 09:04:27;;;;;;;59.22;34.67;;;;;;;7.96;100.00;101434.25;5039786;28;20033;-69
2023/02/19 09:06:53;;;;;;;65.60;36.53;;;;;;;7.99;100.00;101438.41;5041557;28;20078;-70
2023/02/19 09:09:19;;;;;;;58.78;33.47;;;;;;;8.01;100.00;101433.94;5044737;28;20064;-70
2023/02/19 09:11:45;;;;;;;52.78;33.67;;;;;;;8.05;100.00;101442.31;5044660;28;20095;-70
2023/02/19 09:14:10;;;;;;;55.40;33.17;;;;;;;8.07;100.00;101423.09;5047165;28;20383;-70
2023/02/19 09:16:36;;;;;;;52.75;32.13;;;;;;;8.05;100.00;101435.34;5047347;28;20055;-70
2023/02/19 09:19:03;;;;;;;54.83;32.70;;;;;;;8.07;100.00;101443.88;5045124;28;20025;-70
2023/02/19 09:21:28;;;;;;;54.88;34.03;;;;;;;8.08;100.00;101442.09;5046357;28;20049;-70
2023/02/19 09:23:53;;;;;;;57.85;34.10;;;;;;;8.10;100.00;101430.69;5047179;28;20460;-70
2023/02/19 09:26:19;;;;;;;51.75;31.63;;;;;;;8.13;100.00;101429.66;5049305;28;20425;-70
2023/02/19 09:28:45;;;;;;;54.90;33.60;;;;;;;8.15;100.00;101422.59;5041991;28;20029;-70
2023/02/19 09:31:13;;;;;;;57.42;34.67;;;;;;;8.18;100.00;101420.59;5044385;28;20033;-70
2023/02/19 09:33:46;;;;;;;62.65;35.20;;;;;;;8.19;100.00;101411.88;5041356;28;20369;-70
2023/02/19 09:36:14;;;;;;;58.83;33.97;;;;;;;8.25;100.00;101421.84;5044762;28;20048;-70
2023/02/19 09:38:39;;;;;;;56.95;35.13;;;;;;;8.27;100.00;101421.75;5044183;28;20082;-70
2023/02/19 09:41:07;;;;;;;52.33;34.53;;;;;;;8.27;100.00;101417.38;5044018;28;20041;-67
2023/02/19 09:43:34;;;;;;;53.78;33.88;;;;;;;8.30;100.00;101414.56;5041630;28;20017;-70
2023/02/19 09:46:12;;;;;;;64.32;38.45;;;;;;;8.33;100.00;101421.34;5044078;28;20039;-70
2023/02/19 09:48:38;;;;;;;61.50;39.00;;;;;;;8.38;100.00;101418.44;5045224;28;20056;-70
2023/02/19 09:51:05;;;;;;;82.63;46.25;;;;;;;8.39;100.00;101420.09;5044664;28;20064;-70
2023/02/19 09:53:39;;;;;;;81.00;47.65;;;;;;;8.35;100.00;101423.84;5044219;28;20043;-69
2023/02/19 09:56:06;;;;;;;82.20;47.03;;;;;;;8.35;100.00;101429.03;5041832;28;20104;-70
2023/02/19 09:58:34;;;;;;;86.97;48.50;;;;;;;8.35;100.00;101440.25;5045783;28;20064;-70
2023/02/19 10:01:02;;;;;;;81.80;48.67;;;;;;;8.37;100.00;101429.75;5043936;28;20528;-70
2023/02/19 10:03:40;;;;;;;82.88;48.15;;;;;;;8.38;100.00;101423.63;5041688;28;20067;-70
2023/02/19 10:06:13;;;;;;;83.68;49.17;;;;;;;8.39;100.00;101428.72;5040682;28;20031;-70
2023/02/19 10:08:41;;;;;;;123.47;70.25;;;;;;;8.37;100.00;101420.19;5040546;28;20044;-70
2023/02/19 10:11:11;;;;;;;102.28;57.17;;;;;;;8.35;100.00;101423.84;5039722;28;20402;-70
2023/02/19 10:13:44;;;;;;;92.55;50.88;;;;;;;8.31;100.00;101424.03;5035138;28;20148;-70
2023/02/19 10:16:18;;;;;;;89.35;50.42;;;;;;;8.30;100.00;101421.53;5039972;28;20036;-70
2023/02/19 10:18:45;;;;;;;97.90;55.20;;;;;;;8.28;100.00;101416.44;5042852;28;20045;-70
2023/02/19 10:21:29;;;;;;;94.13;52.00;;;;;;;8.25;100.00;101413.22;5037778;28;20055;-70
2023/02/19 10:24:00;;;;;;;85.05;49.58;;;;;;;8.30;100.00;101418.94;5042178;28;20044;-70
2023/02/19 10:26:26;;;;;;;87.25;50.55;;;;;;;8.37;100.00;101424.56;5039740;28;20025;-70
2023/02/19 10:28:54;;;;;;;96.50;53.88;;;;;;;8.47;100.00;101423.00;5039910;28;21458;-70
2023/02/19 10:31:22;;;;;;;90.38;49.95;;;;;;;8.48;100.00;101417.69;5040575;28;20052;-70
2023/02/19 10:33:53;;;;;;;79.68;46.90;;;;;;;8.50;100.00;101408.03;5042574;28;20033;-70
2023/02/19 10:36:32;;;;;;;89.18;46.75;;;;;;;8.52;100.00;101416.50;5035510;28;20529;-70
2023/02/19 10:38:59;;;;;;;76.30;43.50;;;;;;;8.55;100.00;101416.28;5038957;28;20082;-70
2023/02/19 10:41:26;;;;;;;77.75;44.38;;;;;;;8.55;100.00;101420.66;5034565;28;20119;-69
2023/02/19 10:44:15;;;;;;;75.80;45.95;;;;;;;8.46;100.00;101422.16;5036175;28;20029;-70
2023/02/19 10:46:51;;;;;;;89.80;52.30;;;;;;;8.45;100.00;101414.47;5041936;28;20412;-70
2023/02/19 10:49:42;;;;;;;73.18;45.58;;;;;;;8.45;100.00;101419.66;5040024;28;20144;-70
2023/02/19 10:52:19;;;;;;;74.78;44.58;;;;;;;8.45;100.00;101420.50;5041105;28;20069;-70
2023/02/19 10:54:50;;;;;;;72.93;42.92;;;;;;;8.41;100.00;101408.66;5035501;28;20568;-70
2023/02/19 10:57:28;;;;;;;70.53;42.30;;;;;;;8.45;100.00;101394.53;5043726;28;20033;-70
2023/02/19 10:59:58;;;;;;;76.78;45.50;;;;;;;8.45;100.00;101393.69;5039148;28;20047;-70
2023/02/19 11:02:25;;;;;;;74.38;44.17;;;;;;;8.42;100.00;101393.91;5039542;28;20476;-69
2023/02/19 11:05:15;;;;;;;68.82;42.63;;;;;;;8.41;100.00;101384.47;5040939;28;20049;-69
2023/02/19 11:07:51;;;;;;;69.95;42.63;;;;;;;8.46;100.00;101384.97;5039313;28;20556;-70
2023/02/19 11:10:38;;;;;;;75.53;44.17;;;;;;;8.50;100.00;101384.66;5040832;28;20052;-70
2023/02/19 11:13:06;;;;;;;74.80;42.40;;;;;;;8.53;100.00;101376.59;5039224;28;20048;-70
2023/02/19 11:15:36;;;;;;;73.60;42.58;;;;;;;8.54;100.00;101387.81;5043649;28;20480;-71
2023/02/19 11:18:11;;;;;;;67.65;42.65;;;;;;;8.58;100.00;101384.06;5035632;28;20764;-70
2023/02/19 11:20:48;;;;;;;79.03;45.75;;;;;;;8.66;100.00;101381.75;5043289;28;20111;-71
2023/02/19 11:23:22;;;;;;;71.25;44.80;;;;;;;8.69;100.00;101375.53;5021577;28;20127;-70
2023/02/19 11:25:51;;;;;;;74.38;44.88;;;;;;;8.71;100.00;101378.84;5036792;28;20025;-70
2023/02/19 11:28:38;;;;;;;72.65;44.17;;;;;;;8.74;100.00;101373.44;5039320;28;20400;-70
2023/02/19 11:31:14;;;;;;;68.78;42.35;;;;;;;8.78;100.00;101370.50;5038985;28;20569;-70
2023/02/19 11:34:00;;;;;;;67.97;44.03;;;;;;;8.81;100.00;101364.25;5041989;28;20618;-70
2023/02/19 11:36:34;;;;;;;66.90;41.67;;;;;;;8.79;100.00;101366.97;5041912;28;20357;-70
2023/02/19 11:39:14;;;;;;;73.40;43.05;;;;;;;8.76;100.00;101364.59;5051327;28;20036;-73
2023/02/19 11:42:13;;;;;;;67.90;42.28;;;;;;;8.78;100.00;101365.31;5036116;28;20029;-67